VG63 weather

Federal Reserve Heliport
Richmond, Virginia, United States

Public forecast

Using degrees Fahrenheit for public forecast. Weather courtesy of forecast.io.

METAR (pilot weather report)

Closest report is Hanover County Municipal Airport, 11.5 nm (21.4 km) ENE. Retrieved 2019/06/20 23:54 UTC (22 minutes ago):

KOFP 202354Z AUTO 23009KT 10SM CLR 27/19 A2960 RMK AO2 SLP019 60000 T02670194 10322 20267 53003

TAF (pilot weather forecast)

Forecast is more than 12 hours old.

Closest forecast is Richmond International Airport, 16.8 nm (31.1 km) ESE. Retrieved 2019/06/20 00:42 UTC (24 hours ago):

TAF KRIC 202340Z 2100/2124 23012G20KT P6SM SCT050 BKN150 FM210300 25010KT P6SM SKC FM211100 28010G18KT P6SM SKC FM211300 30015G25KT P6SM SCT060